sensor_id;sensor_type;location;lat;lon;timestamp;temperature;humidity
5980;DHT22;3016;50.308;8.258;2023-04-30T00:02:25;9.20;23.10
5980;DHT22;3016;50.308;8.258;2023-04-30T00:05:26;9.20;24.30
5980;DHT22;3016;50.308;8.258;2023-04-30T00:08:26;9.20;25.00
5980;DHT22;3016;50.308;8.258;2023-04-30T00:11:28;9.20;24.90
5980;DHT22;3016;50.308;8.258;2023-04-30T00:14:28;9.20;24.10
5980;DHT22;3016;50.308;8.258;2023-04-30T00:17:29;9.20;24.20
5980;DHT22;3016;50.308;8.258;2023-04-30T00:20:30;9.10;25.50
5980;DHT22;3016;50.308;8.258;2023-04-30T00:23:30;9.20;25.40
5980;DHT22;3016;50.308;8.258;2023-04-30T00:26:31;9.10;26.40
5980;DHT22;3016;50.308;8.258;2023-04-30T00:29:32;9.20;26.40
5980;DHT22;3016;50.308;8.258;2023-04-30T00:32:32;9.10;26.50
5980;DHT22;3016;50.308;8.258;2023-04-30T00:35:33;9.10;26.20
5980;DHT22;3016;50.308;8.258;2023-04-30T00:38:34;9.10;26.20
5980;DHT22;3016;50.308;8.258;2023-04-30T00:41:34;9.10;26.30
5980;DHT22;3016;50.308;8.258;2023-04-30T00:44:35;9.10;26.60
5980;DHT22;3016;50.308;8.258;2023-04-30T00:47:36;9.10;26.10
5980;DHT22;3016;50.308;8.258;2023-04-30T00:50:37;9.10;26.00
5980;DHT22;3016;50.308;8.258;2023-04-30T00:53:39;9.00;24.90
5980;DHT22;3016;50.308;8.258;2023-04-30T00:56:40;8.90;24.20
5980;DHT22;3016;50.308;8.258;2023-04-30T00:59:41;8.90;24.80
5980;DHT22;3016;50.308;8.258;2023-04-30T01:02:42;8.90;24.80
5980;DHT22;3016;50.308;8.258;2023-04-30T01:05:43;8.80;24.40
5980;DHT22;3016;50.308;8.258;2023-04-30T01:08:44;8.80;24.60
5980;DHT22;3016;50.308;8.258;2023-04-30T01:18:22;8.50;24.60
5980;DHT22;3016;50.308;8.258;2023-04-30T01:21:29;8.40;24.50
5980;DHT22;3016;50.308;8.258;2023-04-30T01:28:24;8.10;23.40
5980;DHT22;3016;50.308;8.258;2023-04-30T01:31:27;8.00;23.60
5980;DHT22;3016;50.308;8.258;2023-04-30T01:34:28;7.90;24.20
5980;DHT22;3016;50.308;8.258;2023-04-30T01:40:56;7.70;23.70
5980;DHT22;3016;50.308;8.258;2023-04-30T01:51:31;7.40;23.40
5980;DHT22;3016;50.308;8.258;2023-04-30T01:54:51;7.30;22.50
5980;DHT22;3016;50.308;8.258;2023-04-30T01:57:57;7.30;21.90
5980;DHT22;3016;50.308;8.258;2023-04-30T02:00:59;7.20;22.40
5980;DHT22;3016;50.308;8.258;2023-04-30T02:04:00;7.10;22.20
5980;DHT22;3016;50.308;8.258;2023-04-30T02:07:00;7.00;21.50
5980;DHT22;3016;50.308;8.258;2023-04-30T02:10:01;7.00;20.80
5980;DHT22;3016;50.308;8.258;2023-04-30T02:13:02;6.90;19.00
5980;DHT22;3016;50.308;8.258;2023-04-30T02:16:03;6.80;19.60
5980;DHT22;3016;50.308;8.258;2023-04-30T02:19:04;6.70;21.10
5980;DHT22;3016;50.308;8.258;2023-04-30T02:22:05;6.70;20.60
5980;DHT22;3016;50.308;8.258;2023-04-30T02:25:06;6.60;21.00
5980;DHT22;3016;50.308;8.258;2023-04-30T02:28:06;6.50;21.30
5980;DHT22;3016;50.308;8.258;2023-04-30T02:31:07;6.40;20.90
5980;DHT22;3016;50.308;8.258;2023-04-30T02:34:08;6.30;21.40
5980;DHT22;3016;50.308;8.258;2023-04-30T02:37:09;6.30;22.60
5980;DHT22;3016;50.308;8.258;2023-04-30T02:40:10;6.20;23.10
5980;DHT22;3016;50.308;8.258;2023-04-30T02:43:11;6.20;23.20
5980;DHT22;3016;50.308;8.258;2023-04-30T02:46:11;6.10;22.60
5980;DHT22;3016;50.308;8.258;2023-04-30T02:49:12;6.00;21.70
5980;DHT22;3016;50.308;8.258;2023-04-30T02:52:13;6.00;21.30
5980;DHT22;3016;50.308;8.258;2023-04-30T02:55:13;5.90;20.30
5980;DHT22;3016;50.308;8.258;2023-04-30T02:58:14;5.90;22.70
5980;DHT22;3016;50.308;8.258;2023-04-30T03:01:15;5.80;22.90
5980;DHT22;3016;50.308;8.258;2023-04-30T03:04:15;5.80;22.50
5980;DHT22;3016;50.308;8.258;2023-04-30T03:07:16;5.70;22.90
5980;DHT22;3016;50.308;8.258;2023-04-30T03:10:17;5.70;23.30
5980;DHT22;3016;50.308;8.258;2023-04-30T03:13:18;5.60;21.80
5980;DHT22;3016;50.308;8.258;2023-04-30T03:16:20;5.60;21.60
5980;DHT22;3016;50.308;8.258;2023-04-30T03:19:21;5.50;21.80
5980;DHT22;3016;50.308;8.258;2023-04-30T03:22:24;5.40;20.80
5980;DHT22;3016;50.308;8.258;2023-04-30T03:25:25;5.30;20.50
5980;DHT22;3016;50.308;8.258;2023-04-30T03:28:26;5.30;19.70
5980;DHT22;3016;50.308;8.258;2023-04-30T03:31:27;5.30;21.70
5980;DHT22;3016;50.308;8.258;2023-04-30T03:34:27;5.20;21.50
5980;DHT22;3016;50.308;8.258;2023-04-30T03:37:28;5.20;22.60
5980;DHT22;3016;50.308;8.258;2023-04-30T03:40:29;5.10;21.70
5980;DHT22;3016;50.308;8.258;2023-04-30T03:43:29;5.10;20.90
5980;DHT22;3016;50.308;8.258;2023-04-30T03:46:30;5.00;21.70
5980;DHT22;3016;50.308;8.258;2023-04-30T03:49:31;5.00;22.00
5980;DHT22;3016;50.308;8.258;2023-04-30T03:52:32;4.90;20.40
5980;DHT22;3016;50.308;8.258;2023-04-30T03:55:33;4.90;20.50
5980;DHT22;3016;50.308;8.258;2023-04-30T03:58:34;4.90;22.40
5980;DHT22;3016;50.308;8.258;2023-04-30T04:01:34;4.80;21.20
5980;DHT22;3016;50.308;8.258;2023-04-30T04:04:35;4.80;22.80
5980;DHT22;3016;50.308;8.258;2023-04-30T04:07:36;4.80;23.60
5980;DHT22;3016;50.308;8.258;2023-04-30T04:10:38;4.70;22.30
5980;DHT22;3016;50.308;8.258;2023-04-30T04:13:39;4.70;23.80
5980;DHT22;3016;50.308;8.258;2023-04-30T04:16:40;4.70;24.50
5980;DHT22;3016;50.308;8.258;2023-04-30T04:19:41;4.70;25.40
5980;DHT22;3016;50.308;8.258;2023-04-30T04:22:41;4.70;25.10
5980;DHT22;3016;50.308;8.258;2023-04-30T04:25:42;4.60;24.00
5980;DHT22;3016;50.308;8.258;2023-04-30T04:28:43;4.60;23.80
5980;DHT22;3016;50.308;8.258;2023-04-30T04:31:44;4.60;25.20
5980;DHT22;3016;50.308;8.258;2023-04-30T04:34:46;4.60;26.10
5980;DHT22;3016;50.308;8.258;2023-04-30T04:37:47;4.60;27.70
5980;DHT22;3016;50.308;8.258;2023-04-30T04:40:54;4.70;29.10
5980;DHT22;3016;50.308;8.258;2023-04-30T04:43:55;4.70;29.20
5980;DHT22;3016;50.308;8.258;2023-04-30T04:46:56;4.80;30.20
5980;DHT22;3016;50.308;8.258;2023-04-30T04:49:58;4.90;31.80
5980;DHT22;3016;50.308;8.258;2023-04-30T04:52:58;4.90;30.60
5980;DHT22;3016;50.308;8.258;2023-04-30T04:55:59;5.00;29.90
5980;DHT22;3016;50.308;8.258;2023-04-30T04:59:00;5.10;31.80
5980;DHT22;3016;50.308;8.258;2023-04-30T05:02:01;5.20;34.00
5980;DHT22;3016;50.308;8.258;2023-04-30T05:05:01;5.40;35.90
5980;DHT22;3016;50.308;8.258;2023-04-30T05:08:02;5.60;35.40
5980;DHT22;3016;50.308;8.258;2023-04-30T05:11:04;5.80;32.20
5980;DHT22;3016;50.308;8.258;2023-04-30T05:14:04;5.90;28.40
5980;DHT22;3016;50.308;8.258;2023-04-30T05:17:05;6.10;28.00
5980;DHT22;3016;50.308;8.258;2023-04-30T05:20:07;6.30;25.30
5980;DHT22;3016;50.308;8.258;2023-04-30T05:23:08;6.50;23.30
5980;DHT22;3016;50.308;8.258;2023-04-30T05:26:09;6.80;23.50
5980;DHT22;3016;50.308;8.258;2023-04-30T05:29:10;7.00;20.10
5980;DHT22;3016;50.308;8.258;2023-04-30T05:32:11;7.20;17.50
5980;DHT22;3016;50.308;8.258;2023-04-30T05:35:12;7.50;18.70
5980;DHT22;3016;50.308;8.258;2023-04-30T05:38:12;7.80;15.20
5980;DHT22;3016;50.308;8.258;2023-04-30T05:41:13;8.10;13.00
5980;DHT22;3016;50.308;8.258;2023-04-30T05:44:14;8.20;4.00
5980;DHT22;3016;50.308;8.258;2023-04-30T05:47:14;8.50;1.00
5980;DHT22;3016;50.308;8.258;2023-04-30T05:50:15;8.80;1.00
5980;DHT22;3016;50.308;8.258;2023-04-30T05:53:16;8.90;1.00
5980;DHT22;3016;50.308;8.258;2023-04-30T05:56:19;9.20;1.00
5980;DHT22;3016;50.308;8.258;2023-04-30T05:59:20;9.40;1.00
5980;DHT22;3016;50.308;8.258;2023-04-30T06:02:21;9.50;1.00
5980;DHT22;3016;50.308;8.258;2023-04-30T06:05:24;9.50;1.00
5980;DHT22;3016;50.308;8.258;2023-04-30T06:08:25;9.70;1.00
5980;DHT22;3016;50.308;8.258;2023-04-30T06:11:26;9.90;1.00
5980;DHT22;3016;50.308;8.258;2023-04-30T06:14:27;10.00;1.00
5980;DHT22;3016;50.308;8.258;2023-04-30T06:17:27;10.30;1.00
5980;DHT22;3016;50.308;8.258;2023-04-30T06:20:28;10.40;1.00
5980;DHT22;3016;50.308;8.258;2023-04-30T06:23:29;10.60;1.00
5980;DHT22;3016;50.308;8.258;2023-04-30T06:26:32;10.80;1.00
5980;DHT22;3016;50.308;8.258;2023-04-30T06:29:33;11.00;1.00
5980;DHT22;3016;50.308;8.258;2023-04-30T06:32:33;11.30;1.00
5980;DHT22;3016;50.308;8.258;2023-04-30T06:35:35;11.60;1.00
5980;DHT22;3016;50.308;8.258;2023-04-30T06:38:35;11.60;1.00
5980;DHT22;3016;50.308;8.258;2023-04-30T06:41:36;11.70;1.00
5980;DHT22;3016;50.308;8.258;2023-04-30T06:44:37;11.90;1.00
5980;DHT22;3016;50.308;8.258;2023-04-30T06:47:38;11.90;1.00
5980;DHT22;3016;50.308;8.258;2023-04-30T06:50:41;11.90;1.00
5980;DHT22;3016;50.308;8.258;2023-04-30T06:53:44;12.00;1.00
5980;DHT22;3016;50.308;8.258;2023-04-30T06:56:45;12.00;1.00
5980;DHT22;3016;50.308;8.258;2023-04-30T06:59:45;12.30;1.00
5980;DHT22;3016;50.308;8.258;2023-04-30T07:02:47;12.50;1.00
5980;DHT22;3016;50.308;8.258;2023-04-30T07:05:51;12.50;1.00
5980;DHT22;3016;50.308;8.258;2023-04-30T07:08:53;12.80;1.00
5980;DHT22;3016;50.308;8.258;2023-04-30T07:11:54;12.90;1.00
5980;DHT22;3016;50.308;8.258;2023-04-30T07:14:55;12.90;1.00
5980;DHT22;3016;50.308;8.258;2023-04-30T07:17:55;13.00;1.00
5980;DHT22;3016;50.308;8.258;2023-04-30T07:20:56;13.20;1.00
5980;DHT22;3016;50.308;8.258;2023-04-30T07:23:57;13.40;1.00
5980;DHT22;3016;50.308;8.258;2023-04-30T07:26:57;13.60;1.00
5980;DHT22;3016;50.308;8.258;2023-04-30T07:30:02;13.90;1.00
5980;DHT22;3016;50.308;8.258;2023-04-30T07:33:04;14.00;1.00
5980;DHT22;3016;50.308;8.258;2023-04-30T07:36:04;14.20;1.00
5980;DHT22;3016;50.308;8.258;2023-04-30T07:39:05;14.40;1.00
5980;DHT22;3016;50.308;8.258;2023-04-30T07:42:07;14.70;1.00
5980;DHT22;3016;50.308;8.258;2023-04-30T07:45:08;14.90;1.00
5980;DHT22;3016;50.308;8.258;2023-04-30T07:48:09;15.00;1.00
5980;DHT22;3016;50.308;8.258;2023-04-30T07:51:10;15.00;1.00
5980;DHT22;3016;50.308;8.258;2023-04-30T07:54:11;15.20;1.00
5980;DHT22;3016;50.308;8.258;2023-04-30T07:57:11;15.30;1.00
5980;DHT22;3016;50.308;8.258;2023-04-30T08:00:12;15.50;1.00
5980;DHT22;3016;50.308;8.258;2023-04-30T08:03:14;15.50;1.00
5980;DHT22;3016;50.308;8.258;2023-04-30T08:06:15;15.60;1.00
5980;DHT22;3016;50.308;8.258;2023-04-30T08:09:15;15.80;1.00
5980;DHT22;3016;50.308;8.258;2023-04-30T08:12:16;15.80;1.00
5980;DHT22;3016;50.308;8.258;2023-04-30T08:15:18;15.90;1.00
5980;DHT22;3016;50.308;8.258;2023-04-30T08:18:21;15.80;1.00
5980;DHT22;3016;50.308;8.258;2023-04-30T08:21:21;16.00;1.00
5980;DHT22;3016;50.308;8.258;2023-04-30T08:24:22;16.30;1.00
5980;DHT22;3016;50.308;8.258;2023-04-30T08:27:23;16.40;1.00
5980;DHT22;3016;50.308;8.258;2023-04-30T08:30:24;16.40;1.00
5980;DHT22;3016;50.308;8.258;2023-04-30T08:33:24;16.10;1.00
5980;DHT22;3016;50.308;8.258;2023-04-30T08:36:25;16.30;1.00
5980;DHT22;3016;50.308;8.258;2023-04-30T08:39:26;16.50;1.00
5980;DHT22;3016;50.308;8.258;2023-04-30T08:42:35;16.70;1.00
5980;DHT22;3016;50.308;8.258;2023-04-30T08:45:36;16.70;1.00
5980;DHT22;3016;50.308;8.258;2023-04-30T08:48:37;16.60;1.00
5980;DHT22;3016;50.308;8.258;2023-04-30T08:51:39;16.30;1.00
5980;DHT22;3016;50.308;8.258;2023-04-30T08:54:41;16.20;1.00
5980;DHT22;3016;50.308;8.258;2023-04-30T08:57:43;15.90;1.00
5980;DHT22;3016;50.308;8.258;2023-04-30T09:00:44;16.20;1.00
5980;DHT22;3016;50.308;8.258;2023-04-30T09:03:47;16.60;1.00
5980;DHT22;3016;50.308;8.258;2023-04-30T09:06:48;16.70;1.00
5980;DHT22;3016;50.308;8.258;2023-04-30T09:10:00;16.50;1.00
5980;DHT22;3016;50.308;8.258;2023-04-30T09:13:07;16.60;1.00
5980;DHT22;3016;50.308;8.258;2023-04-30T09:16:08;16.90;1.00
5980;DHT22;3016;50.308;8.258;2023-04-30T09:19:21;17.20;1.00
5980;DHT22;3016;50.308;8.258;2023-04-30T09:22:25;17.50;1.00
5980;DHT22;3016;50.308;8.258;2023-04-30T09:25:40;17.30;1.00
5980;DHT22;3016;50.308;8.258;2023-04-30T09:28:56;17.10;1.00
5980;DHT22;3016;50.308;8.258;2023-04-30T09:32:07;17.70;1.00
5980;DHT22;3016;50.308;8.258;2023-04-30T09:35:31;17.90;1.00
5980;DHT22;3016;50.308;8.258;2023-04-30T09:38:33;18.20;1.00
5980;DHT22;3016;50.308;8.258;2023-04-30T09:41:34;18.40;1.00
5980;DHT22;3016;50.308;8.258;2023-04-30T09:44:39;18.70;1.00
5980;DHT22;3016;50.308;8.258;2023-04-30T09:47:41;18.60;1.00
5980;DHT22;3016;50.308;8.258;2023-04-30T09:50:42;18.60;1.00
5980;DHT22;3016;50.308;8.258;2023-04-30T09:53:44;18.60;1.00
5980;DHT22;3016;50.308;8.258;2023-04-30T09:56:45;18.80;1.00
5980;DHT22;3016;50.308;8.258;2023-04-30T09:59:46;18.50;1.00
5980;DHT22;3016;50.308;8.258;2023-04-30T10:02:48;18.40;1.00
5980;DHT22;3016;50.308;8.258;2023-04-30T10:05:50;17.90;1.00
5980;DHT22;3016;50.308;8.258;2023-04-30T10:08:54;17.80;1.00
5980;DHT22;3016;50.308;8.258;2023-04-30T10:11:56;17.70;1.00
5980;DHT22;3016;50.308;8.258;2023-04-30T10:15:11;17.50;1.00
5980;DHT22;3016;50.308;8.258;2023-04-30T10:18:35;17.90;1.00
5980;DHT22;3016;50.308;8.258;2023-04-30T10:21:41;18.10;1.00
5980;DHT22;3016;50.308;8.258;2023-04-30T10:24:46;18.10;1.00
5980;DHT22;3016;50.308;8.258;2023-04-30T10:27:47;18.10;1.00
5980;DHT22;3016;50.308;8.258;2023-04-30T10:30:49;17.90;1.00
5980;DHT22;3016;50.308;8.258;2023-04-30T10:37:54;18.20;1.00
5980;DHT22;3016;50.308;8.258;2023-04-30T10:40:59;18.40;1.00
5980;DHT22;3016;50.308;8.258;2023-04-30T10:44:01;18.70;1.00
5980;DHT22;3016;50.308;8.258;2023-04-30T10:47:05;18.30;1.00
5980;DHT22;3016;50.308;8.258;2023-04-30T10:50:10;18.60;1.00
5980;DHT22;3016;50.308;8.258;2023-04-30T10:53:17;18.90;1.00
5980;DHT22;3016;50.308;8.258;2023-04-30T10:56:31;18.70;1.00
5980;DHT22;3016;50.308;8.258;2023-04-30T10:59:33;18.90;1.00
5980;DHT22;3016;50.308;8.258;2023-04-30T11:02:44;18.40;1.00
5980;DHT22;3016;50.308;8.258;2023-04-30T11:05:46;18.40;1.00
5980;DHT22;3016;50.308;8.258;2023-04-30T11:08:47;18.50;1.00
5980;DHT22;3016;50.308;8.258;2023-04-30T11:12:01;18.60;1.00
5980;DHT22;3016;50.308;8.258;2023-04-30T11:15:14;18.00;1.00
5980;DHT22;3016;50.308;8.258;2023-04-30T11:18:17;18.40;1.00
5980;DHT22;3016;50.308;8.258;2023-04-30T11:21:19;18.60;1.00
5980;DHT22;3016;50.308;8.258;2023-04-30T11:24:20;18.90;1.00
5980;DHT22;3016;50.308;8.258;2023-04-30T11:27:24;18.90;1.00
5980;DHT22;3016;50.308;8.258;2023-04-30T11:30:28;18.60;1.00
5980;DHT22;3016;50.308;8.258;2023-04-30T11:33:31;18.40;1.00
5980;DHT22;3016;50.308;8.258;2023-04-30T11:36:33;18.70;1.00
5980;DHT22;3016;50.308;8.258;2023-04-30T11:39:34;18.90;1.00
5980;DHT22;3016;50.308;8.258;2023-04-30T11:42:37;18.90;1.00
5980;DHT22;3016;50.308;8.258;2023-04-30T11:45:38;19.00;1.00
5980;DHT22;3016;50.308;8.258;2023-04-30T11:48:42;19.10;1.00
5980;DHT22;3016;50.308;8.258;2023-04-30T11:51:47;18.90;1.00
5980;DHT22;3016;50.308;8.258;2023-04-30T11:54:49;19.00;1.00
5980;DHT22;3016;50.308;8.258;2023-04-30T11:57:52;18.90;1.00
5980;DHT22;3016;50.308;8.258;2023-04-30T12:00:58;18.60;1.00
5980;DHT22;3016;50.308;8.258;2023-04-30T12:04:00;18.50;1.00
5980;DHT22;3016;50.308;8.258;2023-04-30T12:07:06;18.60;1.00
5980;DHT22;3016;50.308;8.258;2023-04-30T12:10:09;18.60;1.00
5980;DHT22;3016;50.308;8.258;2023-04-30T12:13:13;18.60;1.00
5980;DHT22;3016;50.308;8.258;2023-04-30T12:16:15;18.90;1.00
5980;DHT22;3016;50.308;8.258;2023-04-30T12:19:17;19.10;1.00
5980;DHT22;3016;50.308;8.258;2023-04-30T12:22:22;19.00;1.00
5980;DHT22;3016;50.308;8.258;2023-04-30T12:25:23;18.40;1.00
5980;DHT22;3016;50.308;8.258;2023-04-30T12:28:24;18.40;1.00
5980;DHT22;3016;50.308;8.258;2023-04-30T12:31:25;18.50;1.00
5980;DHT22;3016;50.308;8.258;2023-04-30T12:34:26;18.90;1.00
5980;DHT22;3016;50.308;8.258;2023-04-30T12:37:28;19.30;1.00
5980;DHT22;3016;50.308;8.258;2023-04-30T12:40:32;19.50;1.00
5980;DHT22;3016;50.308;8.258;2023-04-30T12:43:33;19.60;1.00
5980;DHT22;3016;50.308;8.258;2023-04-30T12:46:34;19.90;1.00
5980;DHT22;3016;50.308;8.258;2023-04-30T12:49:34;20.20;1.00
5980;DHT22;3016;50.308;8.258;2023-04-30T12:52:35;20.30;1.00
5980;DHT22;3016;50.308;8.258;2023-04-30T12:55:37;20.40;1.00
5980;DHT22;3016;50.308;8.258;2023-04-30T12:58:38;20.80;1.00
5980;DHT22;3016;50.308;8.258;2023-04-30T13:01:44;21.20;1.00
5980;DHT22;3016;50.308;8.258;2023-04-30T13:04:45;21.50;1.00
5980;DHT22;3016;50.308;8.258;2023-04-30T13:07:46;21.60;1.00
5980;DHT22;3016;50.308;8.258;2023-04-30T13:10:48;21.90;1.00
5980;DHT22;3016;50.308;8.258;2023-04-30T13:13:48;22.00;1.00
5980;DHT22;3016;50.308;8.258;2023-04-30T13:16:49;22.50;1.00
5980;DHT22;3016;50.308;8.258;2023-04-30T13:19:50;22.10;1.00
5980;DHT22;3016;50.308;8.258;2023-04-30T13:22:50;21.40;1.00
5980;DHT22;3016;50.308;8.258;2023-04-30T13:25:51;20.40;1.00
5980;DHT22;3016;50.308;8.258;2023-04-30T13:28:52;19.80;1.00
5980;DHT22;3016;50.308;8.258;2023-04-30T13:31:53;20.00;1.00
5980;DHT22;3016;50.308;8.258;2023-04-30T13:34:53;20.40;1.00
5980;DHT22;3016;50.308;8.258;2023-04-30T13:37:58;20.60;1.00
5980;DHT22;3016;50.308;8.258;2023-04-30T13:40:59;20.30;1.00
5980;DHT22;3016;50.308;8.258;2023-04-30T13:43:59;19.90;1.00
5980;DHT22;3016;50.308;8.258;2023-04-30T13:47:00;20.00;1.00
5980;DHT22;3016;50.308;8.258;2023-04-30T13:50:02;20.20;1.00
5980;DHT22;3016;50.308;8.258;2023-04-30T13:53:04;20.30;1.00
5980;DHT22;3016;50.308;8.258;2023-04-30T13:56:05;20.30;1.00
5980;DHT22;3016;50.308;8.258;2023-04-30T13:59:06;20.50;1.00
5980;DHT22;3016;50.308;8.258;2023-04-30T14:02:07;21.00;1.00
5980;DHT22;3016;50.308;8.258;2023-04-30T14:05:08;21.50;1.00
5980;DHT22;3016;50.308;8.258;2023-04-30T14:08:09;21.60;1.00
5980;DHT22;3016;50.308;8.258;2023-04-30T14:11:12;21.40;1.00
5980;DHT22;3016;50.308;8.258;2023-04-30T14:14:12;21.40;1.00
5980;DHT22;3016;50.308;8.258;2023-04-30T14:17:13;21.50;1.00
5980;DHT22;3016;50.308;8.258;2023-04-30T14:20:14;21.80;1.00
5980;DHT22;3016;50.308;8.258;2023-04-30T14:23:15;21.50;1.00
5980;DHT22;3016;50.308;8.258;2023-04-30T14:26:16;21.30;1.00
5980;DHT22;3016;50.308;8.258;2023-04-30T14:29:17;21.30;1.00
5980;DHT22;3016;50.308;8.258;2023-04-30T14:32:18;21.60;1.00
5980;DHT22;3016;50.308;8.258;2023-04-30T14:35:19;21.70;1.00
5980;DHT22;3016;50.308;8.258;2023-04-30T14:38:20;21.20;1.00
5980;DHT22;3016;50.308;8.258;2023-04-30T14:41:21;21.20;1.00
5980;DHT22;3016;50.308;8.258;2023-04-30T14:44:22;21.50;1.00
5980;DHT22;3016;50.308;8.258;2023-04-30T14:47:24;21.30;1.00
5980;DHT22;3016;50.308;8.258;2023-04-30T14:50:26;21.20;1.00
5980;DHT22;3016;50.308;8.258;2023-04-30T14:53:27;21.20;1.00
5980;DHT22;3016;50.308;8.258;2023-04-30T14:56:27;21.20;1.00
5980;DHT22;3016;50.308;8.258;2023-04-30T14:59:28;21.20;1.00
5980;DHT22;3016;50.308;8.258;2023-04-30T15:02:29;21.00;1.00
5980;DHT22;3016;50.308;8.258;2023-04-30T15:05:30;20.70;1.00
5980;DHT22;3016;50.308;8.258;2023-04-30T15:08:31;20.20;1.00
5980;DHT22;3016;50.308;8.258;2023-04-30T15:11:32;20.10;1.00
5980;DHT22;3016;50.308;8.258;2023-04-30T15:14:32;20.20;1.00
5980;DHT22;3016;50.308;8.258;2023-04-30T15:17:34;20.20;1.00
5980;DHT22;3016;50.308;8.258;2023-04-30T15:20:36;20.50;1.00
5980;DHT22;3016;50.308;8.258;2023-04-30T15:23:37;20.60;1.00
5980;DHT22;3016;50.308;8.258;2023-04-30T15:26:37;20.30;1.00
5980;DHT22;3016;50.308;8.258;2023-04-30T15:29:38;20.00;1.00
5980;DHT22;3016;50.308;8.258;2023-04-30T15:32:39;20.10;1.00
5980;DHT22;3016;50.308;8.258;2023-04-30T15:35:40;20.20;1.00
5980;DHT22;3016;50.308;8.258;2023-04-30T15:38:41;20.00;1.00
5980;DHT22;3016;50.308;8.258;2023-04-30T15:41:42;19.20;1.00
5980;DHT22;3016;50.308;8.258;2023-04-30T15:44:44;19.10;1.00
5980;DHT22;3016;50.308;8.258;2023-04-30T15:47:44;19.00;1.00
5980;DHT22;3016;50.308;8.258;2023-04-30T15:50:45;19.00;1.00
5980;DHT22;3016;50.308;8.258;2023-04-30T15:53:46;19.30;1.00
5980;DHT22;3016;50.308;8.258;2023-04-30T15:56:47;20.10;1.00
5980;DHT22;3016;50.308;8.258;2023-04-30T15:59:48;21.20;1.00
5980;DHT22;3016;50.308;8.258;2023-04-30T16:02:48;22.30;1.00
5980;DHT22;3016;50.308;8.258;2023-04-30T16:05:49;21.90;1.00
5980;DHT22;3016;50.308;8.258;2023-04-30T16:08:49;21.90;1.00
5980;DHT22;3016;50.308;8.258;2023-04-30T16:11:50;22.00;1.00
5980;DHT22;3016;50.308;8.258;2023-04-30T16:14:51;22.30;1.00
5980;DHT22;3016;50.308;8.258;2023-04-30T16:17:52;22.10;1.00
5980;DHT22;3016;50.308;8.258;2023-04-30T16:20:53;21.70;1.00
5980;DHT22;3016;50.308;8.258;2023-04-30T16:23:54;21.30;1.00
5980;DHT22;3016;50.308;8.258;2023-04-30T16:26:54;20.60;1.00
5980;DHT22;3016;50.308;8.258;2023-04-30T16:29:55;20.00;1.00
5980;DHT22;3016;50.308;8.258;2023-04-30T16:32:56;19.70;1.00
5980;DHT22;3016;50.308;8.258;2023-04-30T16:35:57;19.60;1.00
5980;DHT22;3016;50.308;8.258;2023-04-30T16:38:57;19.40;1.00
5980;DHT22;3016;50.308;8.258;2023-04-30T16:41:58;19.30;1.00
5980;DHT22;3016;50.308;8.258;2023-04-30T16:44:59;19.20;1.00
5980;DHT22;3016;50.308;8.258;2023-04-30T16:48:00;19.00;1.00
5980;DHT22;3016;50.308;8.258;2023-04-30T16:51:01;18.90;1.00
5980;DHT22;3016;50.308;8.258;2023-04-30T16:54:02;18.70;1.00
5980;DHT22;3016;50.308;8.258;2023-04-30T16:57:03;18.50;1.00
5980;DHT22;3016;50.308;8.258;2023-04-30T17:00:05;18.50;1.00
5980;DHT22;3016;50.308;8.258;2023-04-30T17:03:07;18.90;1.00
5980;DHT22;3016;50.308;8.258;2023-04-30T17:06:09;19.30;1.00
5980;DHT22;3016;50.308;8.258;2023-04-30T17:09:11;19.10;1.00
5980;DHT22;3016;50.308;8.258;2023-04-30T17:12:12;18.80;1.00
5980;DHT22;3016;50.308;8.258;2023-04-30T17:15:14;18.50;1.00
5980;DHT22;3016;50.308;8.258;2023-04-30T17:18:14;18.20;1.00
5980;DHT22;3016;50.308;8.258;2023-04-30T17:21:15;18.00;1.00
5980;DHT22;3016;50.308;8.258;2023-04-30T17:24:16;17.80;1.00
5980;DHT22;3016;50.308;8.258;2023-04-30T17:27:17;17.60;1.00
5980;DHT22;3016;50.308;8.258;2023-04-30T17:30:18;17.50;1.00
5980;DHT22;3016;50.308;8.258;2023-04-30T17:33:19;17.30;1.00
5980;DHT22;3016;50.308;8.258;2023-04-30T17:36:19;17.30;1.00
5980;DHT22;3016;50.308;8.258;2023-04-30T17:39:20;17.30;1.00
5980;DHT22;3016;50.308;8.258;2023-04-30T17:42:21;17.10;1.00
5980;DHT22;3016;50.308;8.258;2023-04-30T17:45:22;17.00;1.00
5980;DHT22;3016;50.308;8.258;2023-04-30T17:48:22;16.90;1.00
5980;DHT22;3016;50.308;8.258;2023-04-30T17:51:25;16.80;1.00
5980;DHT22;3016;50.308;8.258;2023-04-30T17:54:28;16.60;1.00
5980;DHT22;3016;50.308;8.258;2023-04-30T17:57:30;16.50;1.00
5980;DHT22;3016;50.308;8.258;2023-04-30T18:00:30;16.40;1.00
5980;DHT22;3016;50.308;8.258;2023-04-30T18:03:31;16.30;1.00
5980;DHT22;3016;50.308;8.258;2023-04-30T18:06:32;16.20;1.00
5980;DHT22;3016;50.308;8.258;2023-04-30T18:09:33;16.10;1.00
5980;DHT22;3016;50.308;8.258;2023-04-30T18:12:35;16.10;1.00
5980;DHT22;3016;50.308;8.258;2023-04-30T18:15:36;16.00;1.00
5980;DHT22;3016;50.308;8.258;2023-04-30T18:18:37;15.90;1.00
5980;DHT22;3016;50.308;8.258;2023-04-30T18:21:37;15.80;1.00
5980;DHT22;3016;50.308;8.258;2023-04-30T18:24:38;15.70;1.00
5980;DHT22;3016;50.308;8.258;2023-04-30T18:27:40;15.60;1.00
5980;DHT22;3016;50.308;8.258;2023-04-30T18:30:41;15.50;1.00
5980;DHT22;3016;50.308;8.258;2023-04-30T18:33:41;15.20;1.00
5980;DHT22;3016;50.308;8.258;2023-04-30T18:36:42;15.10;1.00
5980;DHT22;3016;50.308;8.258;2023-04-30T18:39:43;14.90;1.00
5980;DHT22;3016;50.308;8.258;2023-04-30T18:42:43;14.80;1.00
5980;DHT22;3016;50.308;8.258;2023-04-30T18:45:44;14.50;1.00
5980;DHT22;3016;50.308;8.258;2023-04-30T18:48:45;14.40;1.00
5980;DHT22;3016;50.308;8.258;2023-04-30T18:51:46;14.40;1.00
5980;DHT22;3016;50.308;8.258;2023-04-30T18:54:46;14.30;1.00
5980;DHT22;3016;50.308;8.258;2023-04-30T18:57:47;14.10;1.00
5980;DHT22;3016;50.308;8.258;2023-04-30T19:00:49;14.00;1.00
5980;DHT22;3016;50.308;8.258;2023-04-30T19:03:50;13.90;1.00
5980;DHT22;3016;50.308;8.258;2023-04-30T19:06:51;13.80;1.00
5980;DHT22;3016;50.308;8.258;2023-04-30T19:09:54;13.70;1.00
5980;DHT22;3016;50.308;8.258;2023-04-30T19:12:54;13.60;1.00
5980;DHT22;3016;50.308;8.258;2023-04-30T19:15:56;13.50;1.00
5980;DHT22;3016;50.308;8.258;2023-04-30T19:18:56;13.30;1.00
5980;DHT22;3016;50.308;8.258;2023-04-30T19:21:57;13.20;1.00
5980;DHT22;3016;50.308;8.258;2023-04-30T19:24:58;13.10;1.00
5980;DHT22;3016;50.308;8.258;2023-04-30T19:27:59;12.90;1.00
5980;DHT22;3016;50.308;8.258;2023-04-30T19:30:59;12.70;1.00
5980;DHT22;3016;50.308;8.258;2023-04-30T19:34:00;12.60;1.00
5980;DHT22;3016;50.308;8.258;2023-04-30T19:37:01;12.50;1.00
5980;DHT22;3016;50.308;8.258;2023-04-30T19:40:01;12.30;1.00
5980;DHT22;3016;50.308;8.258;2023-04-30T19:43:03;12.20;1.00
5980;DHT22;3016;50.308;8.258;2023-04-30T19:46:04;12.10;1.00
5980;DHT22;3016;50.308;8.258;2023-04-30T19:49:05;12.00;1.00
5980;DHT22;3016;50.308;8.258;2023-04-30T19:52:07;11.90;1.00
5980;DHT22;3016;50.308;8.258;2023-04-30T19:55:08;11.80;1.00
5980;DHT22;3016;50.308;8.258;2023-04-30T19:58:09;11.70;1.00
5980;DHT22;3016;50.308;8.258;2023-04-30T20:01:10;11.60;1.00
5980;DHT22;3016;50.308;8.258;2023-04-30T20:04:11;11.60;1.00
5980;DHT22;3016;50.308;8.258;2023-04-30T20:07:12;11.50;1.00
5980;DHT22;3016;50.308;8.258;2023-04-30T20:10:13;11.40;1.00
5980;DHT22;3016;50.308;8.258;2023-04-30T20:13:14;11.40;1.00
5980;DHT22;3016;50.308;8.258;2023-04-30T20:16:16;11.20;1.00
5980;DHT22;3016;50.308;8.258;2023-04-30T20:19:20;11.20;1.00
5980;DHT22;3016;50.308;8.258;2023-04-30T20:22:21;11.10;1.00
5980;DHT22;3016;50.308;8.258;2023-04-30T20:25:23;11.10;1.00
5980;DHT22;3016;50.308;8.258;2023-04-30T20:28:25;11.10;1.00
5980;DHT22;3016;50.308;8.258;2023-04-30T20:31:25;11.00;1.00
5980;DHT22;3016;50.308;8.258;2023-04-30T20:34:30;11.00;1.00